Los Cuartitos, Chile
Current Conditions -  °F | °C
As of 12:00 PM on Saturday 22 Nov 2014 (Local Time) from SCSE Reporting Station
Scattered Clouds Scattered Clouds  
Wind Chill: 61°   Ceiling: Unl
Heat Index: 61°   Visibility: 6mi
Dew Point: 50°   Wind: 12mph
Humidity: 68%   Direction: 260°W
Pressure: 30.03"   Gusts: NA
Location:  29.64°S, 70.17°W
Report Text: SCSE 221600Z 26010KT 9999 SCT020 16/10 Q1017
Loading
Personal Weather Stations






























Interactive Weather Map New forecast layout! Learn more

10-Day Weather Forecast

Advertisements
Track Severe Weather on mobile